createdAt,value
2018-05-31T00:01:05.611Z,16.97
2018-05-31T00:03:33.215Z,17.25
2018-05-31T00:06:00.768Z,17.32
2018-05-31T00:08:28.256Z,17.36
2018-05-31T00:10:55.791Z,17.33
2018-05-31T00:13:23.355Z,16.89
2018-05-31T00:15:50.858Z,16.65
2018-05-31T00:18:18.354Z,16.40
2018-05-31T00:20:45.870Z,16.74
2018-05-31T00:23:13.362Z,17.07
2018-05-31T00:25:40.871Z,17.14
2018-05-31T00:28:08.347Z,17.03
2018-05-31T00:30:35.852Z,16.80
2018-05-31T00:33:03.331Z,16.71
2018-05-31T00:35:30.835Z,16.52
2018-05-31T00:37:58.326Z,16.93
2018-05-31T00:40:25.879Z,17.01
2018-05-31T00:42:53.430Z,17.10
2018-05-31T00:45:20.935Z,16.83
2018-05-31T00:47:48.419Z,16.77
2018-05-31T00:50:16.109Z,16.46
2018-05-31T00:52:43.591Z,16.68
2018-05-31T00:55:11.106Z,16.87
2018-05-31T00:57:38.594Z,17.05
2018-05-31T01:00:06.103Z,16.92
2018-05-31T01:02:33.685Z,16.87
2018-05-31T01:05:01.262Z,16.63
2018-05-31T01:07:28.758Z,16.65
2018-05-31T01:09:56.262Z,16.92
2018-05-31T01:12:24.246Z,16.97
2018-05-31T01:14:51.787Z,17.04
2018-05-31T01:17:19.304Z,16.94
2018-05-31T01:19:46.934Z,16.40
2018-05-31T01:22:14.443Z,16.40
2018-05-31T01:24:42.032Z,16.28
2018-05-31T01:27:09.590Z,16.30
2018-05-31T01:29:37.144Z,16.30
2018-05-31T01:32:04.711Z,16.63
2018-05-31T01:34:32.183Z,16.83
2018-05-31T01:36:59.723Z,16.83
2018-05-31T01:39:27.210Z,16.52
2018-05-31T01:41:54.835Z,16.28
2018-05-31T01:44:22.730Z,16.48
2018-05-31T01:46:50.238Z,16.57
2018-05-31T01:49:17.728Z,16.57
2018-05-31T01:51:45.247Z,16.36
2018-05-31T01:54:12.843Z,16.20
2018-05-31T01:56:40.338Z,16.58
2018-05-31T01:59:07.847Z,16.68
2018-05-31T02:01:35.402Z,16.59
2018-05-31T02:04:02.883Z,16.65
2018-05-31T02:06:30.385Z,16.89
2018-05-31T02:08:58.011Z,16.96
2018-05-31T02:11:25.539Z,16.81
2018-05-31T02:13:53.093Z,16.52
2018-05-31T02:16:20.888Z,16.57
2018-05-31T02:18:48.407Z,16.42
2018-05-31T02:21:15.979Z,16.16
2018-05-31T02:23:43.543Z,16.15
2018-05-31T02:26:11.102Z,16.07
2018-05-31T02:28:38.640Z,16.27
2018-05-31T02:31:06.142Z,16.56
2018-05-31T02:33:33.633Z,16.61
2018-05-31T02:36:01.143Z,16.57
2018-05-31T02:38:28.680Z,16.77
2018-05-31T02:40:56.187Z,16.80
2018-05-31T02:43:23.679Z,16.77
2018-05-31T02:45:51.191Z,16.70
2018-05-31T02:48:18.695Z,16.38
2018-05-31T02:50:46.201Z,15.93
2018-05-31T02:53:13.690Z,15.93
2018-05-31T02:55:41.186Z,16.29
2018-05-31T02:58:08.672Z,16.16
2018-05-31T03:00:36.191Z,15.90
2018-05-31T03:03:03.695Z,15.73
2018-05-31T03:05:31.311Z,16.17
2018-05-31T03:07:58.879Z,16.19
2018-05-31T03:10:26.367Z,16.14
2018-05-31T03:12:53.979Z,15.92
2018-05-31T03:15:21.546Z,15.89
2018-05-31T03:17:49.055Z,15.99
2018-05-31T03:20:16.544Z,15.99
2018-05-31T03:22:44.107Z,15.94
2018-05-31T03:25:11.623Z,15.85
2018-05-31T03:27:39.138Z,16.21
2018-05-31T03:30:07.648Z,16.23
2018-05-31T03:32:35.158Z,16.21
2018-05-31T03:35:04.495Z,16.20
2018-05-31T03:37:32.014Z,16.27
2018-05-31T03:39:59.577Z,16.52
2018-05-31T03:42:27.087Z,16.63
2018-05-31T03:44:54.577Z,16.26
2018-05-31T03:47:22.131Z,16.09
2018-05-31T03:49:49.591Z,15.87
2018-05-31T03:52:17.158Z,15.83
2018-05-31T03:54:44.722Z,15.92
2018-05-31T03:57:12.291Z,15.89
2018-05-31T03:59:39.776Z,16.05
2018-05-31T04:02:07.270Z,16.33
2018-05-31T04:04:34.930Z,16.55
2018-05-31T04:07:02.432Z,16.62
2018-05-31T04:09:30.006Z,16.72
2018-05-31T04:11:57.518Z,16.77
2018-05-31T04:14:47.770Z,16.69
2018-05-31T04:20:46.061Z,16.25
2018-05-31T04:23:20.530Z,16.32
2018-05-31T04:26:21.033Z,16.38
2018-05-31T04:28:57.735Z,16.44
2018-05-31T04:37:02.405Z,16.67
2018-05-31T04:39:32.930Z,16.46
2018-05-31T04:42:05.215Z,16.49
2018-05-31T04:44:37.433Z,16.67
2018-05-31T04:47:07.494Z,16.84
2018-05-31T04:49:39.026Z,17.04
2018-05-31T04:52:13.561Z,17.29
2018-05-31T04:54:44.703Z,17.44
2018-05-31T04:57:14.955Z,17.52
2018-05-31T04:59:47.963Z,17.35
2018-05-31T05:02:29.193Z,17.52
2018-05-31T05:10:35.860Z,17.95
2018-05-31T05:19:35.694Z,18.23
2018-05-31T05:22:05.267Z,18.33
2018-05-31T05:24:41.424Z,18.50
2018-05-31T05:27:12.825Z,18.57
2018-05-31T05:29:47.739Z,18.68
2018-05-31T05:32:21.103Z,18.82
2018-05-31T05:35:23.044Z,18.85
2018-05-31T05:37:52.418Z,18.85
2018-05-31T05:40:26.032Z,18.87
2018-05-31T05:42:55.255Z,19.07
2018-05-31T05:45:35.280Z,19.18
2018-05-31T05:48:08.957Z,19.20
2018-05-31T05:50:38.601Z,19.34
2018-05-31T05:53:08.346Z,19.47
2018-05-31T05:55:36.740Z,19.54
2018-05-31T05:58:05.871Z,19.63
2018-05-31T06:00:34.366Z,19.73
2018-05-31T06:03:04.340Z,19.78
2018-05-31T06:05:31.926Z,19.83
2018-05-31T06:07:59.430Z,19.89
2018-05-31T06:10:26.955Z,19.81
2018-05-31T06:12:54.466Z,20.03
2018-05-31T06:15:21.946Z,20.13
2018-05-31T06:17:49.455Z,20.13
2018-05-31T06:20:16.934Z,20.15
2018-05-31T06:22:44.415Z,20.26
2018-05-31T06:25:11.990Z,20.27
2018-05-31T06:27:39.478Z,20.38
2018-05-31T06:30:06.999Z,20.53
2018-05-31T06:32:34.516Z,20.63
2018-05-31T06:35:02.022Z,20.67
2018-05-31T06:37:29.561Z,20.68
2018-05-31T06:39:57.019Z,20.82
2018-05-31T06:42:24.596Z,20.95
2018-05-31T06:44:52.084Z,21.00
2018-05-31T06:47:19.553Z,20.98
2018-05-31T06:49:47.055Z,21.03
2018-05-31T06:52:14.526Z,21.08
2018-05-31T06:54:42.116Z,21.12
2018-05-31T06:57:09.584Z,21.16
2018-05-31T06:59:37.085Z,21.23
2018-05-31T07:02:04.895Z,21.34
2018-05-31T07:04:32.394Z,21.39
2018-05-31T07:06:59.866Z,21.35
2018-05-31T07:09:27.351Z,21.43
2018-05-31T07:11:54.828Z,21.48
2018-05-31T07:14:22.314Z,21.57
2018-05-31T07:16:49.778Z,21.59
2018-05-31T07:19:17.311Z,21.53
2018-05-31T07:21:44.840Z,21.67
2018-05-31T07:24:12.294Z,21.75
2018-05-31T07:26:39.763Z,21.80
2018-05-31T07:29:07.263Z,21.87
2018-05-31T07:31:34.739Z,21.87
2018-05-31T07:34:02.233Z,21.97
2018-05-31T07:36:29.704Z,21.99
2018-05-31T07:38:57.199Z,22.12
2018-05-31T07:41:24.676Z,22.15
2018-05-31T07:43:52.197Z,22.26
2018-05-31T07:46:19.666Z,22.28
2018-05-31T07:48:47.159Z,22.29
2018-05-31T07:51:14.689Z,22.31
2018-05-31T07:53:42.269Z,22.46
2018-05-31T07:56:10.067Z,22.49
2018-05-31T07:58:37.576Z,22.57
2018-05-31T08:01:05.042Z,22.62
2018-05-31T08:03:32.523Z,22.76
2018-05-31T08:06:00.051Z,22.50
2018-05-31T08:08:27.524Z,22.60
2018-05-31T08:10:55.032Z,22.63
2018-05-31T08:13:22.512Z,22.65
2018-05-31T08:15:50.011Z,22.76
2018-05-31T08:18:17.482Z,22.92
2018-05-31T08:20:45.041Z,23.00
2018-05-31T08:23:12.556Z,23.20
2018-05-31T08:25:40.108Z,23.31
2018-05-31T08:28:07.588Z,23.14
2018-05-31T08:30:35.105Z,23.38
2018-05-31T08:33:02.575Z,23.41
2018-05-31T08:35:30.072Z,23.42
2018-05-31T08:37:57.542Z,23.50
2018-05-31T08:40:25.490Z,23.64
2018-05-31T08:42:52.976Z,23.66
2018-05-31T08:45:20.487Z,23.77
2018-05-31T08:47:47.965Z,23.74
2018-05-31T08:50:15.484Z,23.64
2018-05-31T08:52:42.956Z,23.66
2018-05-31T08:55:10.463Z,23.70
2018-05-31T08:57:37.934Z,23.82
2018-05-31T09:00:05.430Z,23.95
2018-05-31T09:02:32.907Z,24.06
2018-05-31T09:05:00.467Z,24.25
2018-05-31T09:07:27.946Z,24.38
2018-05-31T09:09:55.437Z,24.45
2018-05-31T09:12:23.345Z,24.59
2018-05-31T09:14:50.863Z,24.80
2018-05-31T09:17:18.333Z,24.94
2018-05-31T09:19:45.819Z,25.06
2018-05-31T09:22:13.294Z,24.91
2018-05-31T09:24:40.794Z,24.71
2018-05-31T09:27:08.285Z,25.08
2018-05-31T09:29:35.777Z,25.31
2018-05-31T09:32:03.252Z,25.55
2018-05-31T09:34:30.748Z,25.43
2018-05-31T09:36:58.512Z,25.52
2018-05-31T09:39:25.979Z,25.60
2018-05-31T09:41:53.473Z,25.62
2018-05-31T09:44:20.962Z,25.45
2018-05-31T09:46:48.472Z,25.67
2018-05-31T09:49:15.951Z,25.89
2018-05-31T09:51:43.459Z,25.72
2018-05-31T09:54:11.059Z,25.87
2018-05-31T09:56:38.589Z,25.92
2018-05-31T09:59:06.182Z,26.10
2018-05-31T10:01:33.764Z,26.06
2018-05-31T10:04:01.281Z,25.88
2018-05-31T10:06:28.914Z,25.80
2018-05-31T10:08:56.518Z,25.63
2018-05-31T10:11:24.097Z,25.96
2018-05-31T10:13:51.585Z,25.99
2018-05-31T10:16:19.130Z,25.84
2018-05-31T10:18:46.605Z,25.84
2018-05-31T10:21:14.138Z,25.98
2018-05-31T10:23:41.659Z,26.26
2018-05-31T10:26:09.251Z,26.50
2018-05-31T10:28:36.824Z,26.51
2018-05-31T10:31:04.349Z,26.28
2018-05-31T10:33:31.829Z,26.11
2018-05-31T10:35:59.427Z,26.12
2018-05-31T10:38:26.989Z,26.29
2018-05-31T10:40:54.628Z,26.42
2018-05-31T10:43:22.147Z,26.40
2018-05-31T10:45:49.776Z,26.19
2018-05-31T10:48:17.268Z,26.43
2018-05-31T10:50:44.824Z,26.68
2018-05-31T10:53:12.393Z,26.90
2018-05-31T10:55:39.926Z,27.06
2018-05-31T10:58:07.419Z,27.32
2018-05-31T11:00:35.018Z,27.35
2018-05-31T11:03:02.500Z,27.48
2018-05-31T11:05:30.132Z,27.21
2018-05-31T11:07:57.634Z,27.48
2018-05-31T11:10:25.132Z,27.86
2018-05-31T11:13:09.472Z,27.50
2018-05-31T11:15:36.966Z,27.54
2018-05-31T11:18:04.448Z,27.51
2018-05-31T11:20:31.994Z,27.81
2018-05-31T11:22:59.472Z,27.76
2018-05-31T11:25:26.964Z,27.71
2018-05-31T11:27:54.451Z,27.37
2018-05-31T11:30:21.946Z,27.29
2018-05-31T11:32:49.465Z,27.49
2018-05-31T11:35:16.936Z,27.68
2018-05-31T11:37:44.433Z,27.68
2018-05-31T11:40:11.911Z,27.79
2018-05-31T11:42:39.402Z,27.85
2018-05-31T11:45:06.887Z,27.85
2018-05-31T11:47:34.398Z,27.65
2018-05-31T11:50:01.871Z,27.88
2018-05-31T11:52:29.389Z,27.90
2018-05-31T11:54:56.882Z,28.16
2018-05-31T11:57:24.382Z,28.34
2018-05-31T11:59:51.857Z,28.20
2018-05-31T12:02:19.356Z,28.17
2018-05-31T12:04:46.826Z,27.95
2018-05-31T12:07:14.338Z,27.66
2018-05-31T12:09:41.817Z,27.91
2018-05-31T12:12:09.358Z,27.92
2018-05-31T12:14:36.815Z,28.31
2018-05-31T12:17:04.322Z,27.98
2018-05-31T12:19:31.796Z,27.73
2018-05-31T12:21:59.290Z,28.02
2018-05-31T12:24:26.774Z,28.28
2018-05-31T12:26:54.272Z,28.35
2018-05-31T12:29:21.753Z,28.51
2018-05-31T12:31:49.269Z,28.73
2018-05-31T12:34:21.559Z,28.96
2018-05-31T12:36:55.680Z,28.95
2018-05-31T12:39:24.957Z,28.36
2018-05-31T12:41:52.466Z,28.58
2018-05-31T12:44:19.983Z,28.70
2018-05-31T12:46:51.997Z,28.78
2018-05-31T12:49:24.612Z,28.87
2018-05-31T12:51:52.169Z,28.81
2018-05-31T12:54:21.731Z,28.59
2018-05-31T12:57:00.247Z,28.76
2018-05-31T12:59:27.851Z,28.58
2018-05-31T13:01:55.837Z,28.44
2018-05-31T13:04:23.430Z,28.67
2018-05-31T13:06:53.803Z,28.74
2018-05-31T13:09:25.607Z,28.94
2018-05-31T13:11:53.151Z,28.73
2018-05-31T13:14:31.390Z,28.77
2018-05-31T13:17:01.420Z,28.33
2018-05-31T13:19:35.035Z,28.76
2018-05-31T13:22:06.187Z,28.82
2018-05-31T13:24:33.684Z,29.08
2018-05-31T13:27:05.058Z,29.25
2018-05-31T13:29:35.081Z,29.26
2018-05-31T13:32:28.521Z,28.99
2018-05-31T13:38:04.320Z,29.25
2018-05-31T13:40:41.889Z,29.25
2018-05-31T13:43:15.177Z,29.26
2018-05-31T13:48:33.927Z,28.83
2018-05-31T13:51:05.580Z,29.05
2018-05-31T13:53:42.037Z,29.10
2018-05-31T13:59:04.967Z,29.14
2018-05-31T14:01:41.603Z,29.24
2018-05-31T14:04:25.022Z,29.15
2018-05-31T14:06:56.299Z,29.09
2018-05-31T14:09:46.197Z,28.71
2018-05-31T14:12:15.548Z,28.34
2018-05-31T14:14:47.304Z,28.15
2018-05-31T14:17:22.801Z,28.15
2018-05-31T14:19:56.259Z,27.82
2018-05-31T14:22:32.206Z,27.73
2018-05-31T14:25:08.894Z,27.62
2018-05-31T14:27:41.212Z,27.16
2018-05-31T14:32:57.416Z,26.68
2018-05-31T14:35:29.278Z,26.42
2018-05-31T14:38:00.108Z,26.06
2018-05-31T14:40:45.719Z,25.91
2018-05-31T14:43:57.019Z,26.19
2018-05-31T14:49:10.386Z,26.06
2018-05-31T14:51:46.962Z,25.75
2018-05-31T14:54:39.339Z,25.76
2018-05-31T14:57:19.243Z,25.83
2018-05-31T14:59:58.311Z,25.33
2018-05-31T15:02:29.656Z,25.67
2018-05-31T15:05:02.648Z,25.50
2018-05-31T15:07:39.936Z,25.06
2018-05-31T15:10:11.495Z,25.28
2018-05-31T15:12:41.913Z,24.98
2018-05-31T15:15:14.768Z,25.25
2018-05-31T16:09:18.847Z,25.46
2018-05-31T16:11:51.071Z,25.60
2018-05-31T16:14:24.152Z,25.20
2018-05-31T17:16:32.813Z,23.55
2018-05-31T17:19:02.500Z,23.56
2018-05-31T17:21:33.235Z,23.56
2018-05-31T17:24:06.242Z,23.61
2018-05-31T17:26:40.104Z,23.84
2018-05-31T17:29:11.760Z,24.13
2018-05-31T17:31:43.023Z,24.07
2018-05-31T17:34:19.975Z,24.07
2018-05-31T17:36:53.068Z,23.91
2018-05-31T17:42:08.715Z,23.66
2018-05-31T17:44:50.563Z,23.67
2018-05-31T17:47:24.999Z,23.67
2018-05-31T17:49:53.665Z,23.76
2018-05-31T17:52:28.450Z,23.59
2018-05-31T17:54:58.265Z,23.69
2018-05-31T17:57:28.278Z,23.66
2018-05-31T18:00:01.918Z,23.70
2018-05-31T18:02:33.069Z,23.81
2018-05-31T18:05:08.975Z,23.76
2018-05-31T18:07:38.853Z,23.71
2018-05-31T18:10:24.282Z,23.87
2018-05-31T18:12:54.548Z,24.07
2018-05-31T18:15:25.638Z,23.85
2018-05-31T18:17:53.432Z,23.99
2018-05-31T18:20:22.248Z,24.11
2018-05-31T18:22:49.774Z,23.81
2018-05-31T18:25:24.624Z,23.75
2018-05-31T18:27:56.819Z,23.81
2018-05-31T18:30:24.385Z,23.74
2018-05-31T18:32:56.683Z,23.82
2018-05-31T18:35:28.642Z,23.86
2018-05-31T18:37:58.218Z,23.90
2018-05-31T18:40:28.686Z,23.91
2018-05-31T18:42:57.934Z,23.59
2018-05-31T18:45:28.474Z,23.07
2018-05-31T18:47:57.031Z,22.96
2018-05-31T18:50:29.125Z,23.18
2018-05-31T18:52:59.898Z,23.19
2018-05-31T18:55:33.280Z,22.96
2018-05-31T18:58:06.499Z,22.85
2018-05-31T19:00:34.041Z,22.86
2018-05-31T19:03:03.431Z,22.79
2018-05-31T19:05:31.088Z,22.65
2018-05-31T19:07:58.612Z,22.60
2018-05-31T19:10:26.263Z,22.43
2018-05-31T19:12:59.550Z,22.21
2018-05-31T19:15:27.182Z,22.15
2018-05-31T19:17:54.723Z,22.12
2018-05-31T19:20:22.262Z,22.14
2018-05-31T19:22:49.764Z,22.07
2018-05-31T19:25:20.150Z,21.85
2018-05-31T19:27:47.678Z,21.72
2018-05-31T19:30:21.376Z,21.64
2018-05-31T19:32:49.017Z,21.67
2018-05-31T19:35:22.253Z,21.74
2018-05-31T19:37:49.834Z,21.84
2018-05-31T19:40:17.365Z,21.60
2018-05-31T19:45:44.699Z,21.66
2018-05-31T19:48:12.173Z,21.51
2018-05-31T19:50:39.850Z,21.63
2018-05-31T19:53:13.002Z,21.76
2018-05-31T19:55:40.540Z,21.72
2018-05-31T19:58:13.679Z,21.72
2018-05-31T20:00:46.797Z,21.71
2018-05-31T20:03:19.947Z,21.62
2018-05-31T20:05:51.367Z,21.65
2018-05-31T20:08:22.444Z,21.50
2018-05-31T20:24:52.285Z,21.47
2018-05-31T20:27:21.351Z,21.33
2018-05-31T20:29:59.571Z,21.12
2018-05-31T20:32:40.301Z,21.03
2018-05-31T20:35:10.509Z,21.00
2018-05-31T20:37:53.910Z,21.00
2018-05-31T20:40:23.514Z,21.01
2018-05-31T20:45:36.591Z,20.98
2018-05-31T20:48:13.057Z,20.97
2018-05-31T20:56:06.810Z,21.20
2018-05-31T20:58:46.573Z,21.19
2018-05-31T21:01:21.148Z,21.10
2018-05-31T21:03:51.451Z,20.58
2018-05-31T21:06:25.053Z,20.63
2018-05-31T21:09:01.112Z,20.66
2018-05-31T21:11:33.381Z,20.83
2018-05-31T21:14:02.699Z,21.00
2018-05-31T21:16:33.422Z,20.71
2018-05-31T21:19:03.183Z,20.55
2018-05-31T21:21:32.783Z,20.42
2018-05-31T21:24:10.841Z,20.39
2018-05-31T21:26:45.881Z,20.44
2018-05-31T21:29:19.739Z,20.47
2018-05-31T21:31:55.376Z,20.64
2018-05-31T21:34:24.109Z,20.65
2018-05-31T21:36:56.249Z,20.66
2018-05-31T21:39:27.529Z,20.47
2018-05-31T21:42:05.343Z,20.34
2018-05-31T21:44:38.588Z,20.39
2018-05-31T21:47:12.328Z,20.32
2018-05-31T21:49:50.023Z,20.41
2018-05-31T21:52:21.477Z,20.29
2018-05-31T21:54:50.924Z,20.19
2018-05-31T21:57:24.282Z,19.90
2018-05-31T22:00:00.687Z,19.70
2018-05-31T22:02:39.709Z,19.61
2018-05-31T22:05:30.467Z,19.70
2018-05-31T22:08:06.613Z,19.84
2018-05-31T22:10:36.705Z,19.80
2018-05-31T22:13:18.711Z,19.24
2018-05-31T22:29:47.967Z,18.84
2018-05-31T22:32:20.673Z,18.87
2018-05-31T22:34:51.918Z,18.88
2018-05-31T22:37:25.945Z,18.87
2018-05-31T22:39:58.922Z,18.93
2018-05-31T22:42:38.569Z,18.95
2018-05-31T22:45:15.480Z,19.02
2018-05-31T22:47:45.809Z,18.95
2018-05-31T22:50:20.923Z,18.82
2018-05-31T22:52:58.170Z,18.59
2018-05-31T22:55:33.014Z,18.77
2018-05-31T23:00:48.865Z,19.15
2018-05-31T23:03:21.597Z,19.15
2018-05-31T23:05:52.378Z,19.14
2018-05-31T23:08:23.673Z,19.04
2018-05-31T23:10:57.849Z,18.68
2018-05-31T23:13:31.797Z,18.64
2018-05-31T23:16:12.977Z,18.82
2018-05-31T23:18:44.307Z,18.87
2018-05-31T23:21:19.768Z,18.68
2018-05-31T23:23:50.020Z,18.72
2018-05-31T23:26:21.697Z,18.68
2018-05-31T23:31:33.572Z,18.91
2018-05-31T23:34:05.930Z,19.01
2018-05-31T23:36:37.126Z,18.48
2018-05-31T23:39:10.641Z,18.25
2018-05-31T23:41:43.408Z,18.25
2018-05-31T23:44:24.175Z,18.55
2018-05-31T23:46:57.362Z,18.58
2018-05-31T23:49:31.995Z,18.53
2018-05-31T23:52:04.208Z,18.36
2018-05-31T23:54:33.512Z,18.05
2018-05-31T23:57:04.191Z,18.02
2018-05-31T23:59:39.999Z,18.22
